createdAt,value
2022-11-16T00:08:10.838Z,6.09
2022-11-16T00:18:12.637Z,6.12
2022-11-16T00:28:15.099Z,6.13
2022-11-16T00:38:16.895Z,6.15
2022-11-16T00:48:19.131Z,6.21
2022-11-16T00:58:21.268Z,6.25
2022-11-16T01:08:29.500Z,6.31
2022-11-16T01:18:31.620Z,6.32
2022-11-16T01:28:34.104Z,6.29
2022-11-16T01:38:36.972Z,6.26
2022-11-16T01:48:39.725Z,6.27
2022-11-16T01:58:43.616Z,6.27
2022-11-16T02:09:21.529Z,6.26
2022-11-16T02:19:32.534Z,6.25
2022-11-16T02:29:52.840Z,6.25
2022-11-16T02:40:00.760Z,6.31
2022-11-16T02:50:10.093Z,6.29
2022-11-16T03:00:19.486Z,6.26
2022-11-16T03:10:41.216Z,6.26
2022-11-16T03:20:43.853Z,6.27
2022-11-16T03:31:14.402Z,6.33
2022-11-16T03:41:18.513Z,6.31
2022-11-16T03:51:20.362Z,6.28
2022-11-16T04:01:22.335Z,6.25
2022-11-16T04:11:43.573Z,6.23
2022-11-16T04:22:15.421Z,6.22
2022-11-16T04:32:36.040Z,6.21
2022-11-16T04:42:37.846Z,6.24
2022-11-16T04:52:39.609Z,6.26
2022-11-16T05:02:42.481Z,6.27
2022-11-16T05:12:44.361Z,6.26
2022-11-16T05:22:53.727Z,6.24
2022-11-16T05:32:55.892Z,6.25
2022-11-16T05:42:58.935Z,6.26
2022-11-16T05:53:01.289Z,6.20
2022-11-16T06:03:03.382Z,6.17
2022-11-16T06:13:06.664Z,6.17
2022-11-16T06:23:08.706Z,6.21
2022-11-16T06:33:10.913Z,6.22
2022-11-16T06:43:12.965Z,6.24
2022-11-16T06:54:11.951Z,6.26
2022-11-16T07:04:19.579Z,6.29
2022-11-16T07:14:25.460Z,6.29
2022-11-16T07:24:27.248Z,6.30
2022-11-16T07:34:30.413Z,6.31
2022-11-16T07:44:44.191Z,6.30
2022-11-16T07:54:45.959Z,6.30
2022-11-16T08:04:49.772Z,6.33
2022-11-16T08:14:54.382Z,6.28
2022-11-16T08:24:56.201Z,6.30
2022-11-16T08:34:58.457Z,6.37
2022-11-16T08:45:00.291Z,6.38
2022-11-16T08:55:03.880Z,6.36
2022-11-16T09:05:07.418Z,6.42
2022-11-16T09:15:09.389Z,6.42
2022-11-16T09:25:11.047Z,6.39
2022-11-16T09:35:12.960Z,6.41
2022-11-16T09:45:29.029Z,6.45
2022-11-16T09:55:41.777Z,6.49
2022-11-16T10:05:54.758Z,6.58
2022-11-16T10:16:01.858Z,6.55
2022-11-16T10:26:28.494Z,6.47
2022-11-16T10:36:32.176Z,6.41
2022-11-16T10:46:43.750Z,6.43
2022-11-16T10:56:51.116Z,6.49
2022-11-16T11:06:59.039Z,6.54
2022-11-16T11:17:11.780Z,6.61
2022-11-16T11:27:21.867Z,6.71
2022-11-16T11:37:33.504Z,6.76
2022-11-16T11:48:26.096Z,6.83
2022-11-16T11:58:36.421Z,6.86
2022-11-16T12:08:38.004Z,6.85
2022-11-16T12:19:09.998Z,6.86
2022-11-16T12:29:23.377Z,6.86
2022-11-16T12:39:35.243Z,6.84
2022-11-16T12:49:46.040Z,6.71
2022-11-16T13:00:18.461Z,6.53
2022-11-16T13:10:34.832Z,6.06
2022-11-16T13:20:54.958Z,5.73
2022-11-16T13:31:05.645Z,5.53
2022-11-16T13:41:30.199Z,5.35
2022-11-16T13:51:31.932Z,5.21
2022-11-16T14:01:54.905Z,5.07
2022-11-16T14:11:58.584Z,4.88
2022-11-16T14:22:15.598Z,4.80
2022-11-16T14:32:27.064Z,4.76
2022-11-16T14:42:48.138Z,4.65
2022-11-16T14:53:00.835Z,4.45
2022-11-16T15:03:05.047Z,4.31
2022-11-16T15:13:07.300Z,4.19
2022-11-16T15:23:14.138Z,4.15
2022-11-16T15:33:23.975Z,4.11
2022-11-16T15:43:49.694Z,4.09
2022-11-16T15:54:54.196Z,4.10
2022-11-16T16:04:56.292Z,4.12
2022-11-16T16:15:23.332Z,4.16
2022-11-16T16:25:30.596Z,4.20
2022-11-16T16:35:32.364Z,4.26
2022-11-16T16:45:38.212Z,4.28
2022-11-16T16:55:42.100Z,4.27
2022-11-16T17:05:44.106Z,4.29
2022-11-16T17:15:45.763Z,4.32
2022-11-16T17:25:47.567Z,4.28
2022-11-16T17:35:56.329Z,4.32
2022-11-16T17:46:07.175Z,4.34
2022-11-16T17:56:10.634Z,4.33
2022-11-16T18:06:15.455Z,4.34
2022-11-16T18:16:18.289Z,4.35
2022-11-16T18:26:23.094Z,4.32
2022-11-16T18:36:24.648Z,4.34
2022-11-16T18:46:28.906Z,4.34
2022-11-16T18:56:30.754Z,4.33
2022-11-16T19:06:32.569Z,4.32
2022-11-16T19:16:34.440Z,4.26
2022-11-16T19:26:36.226Z,4.26
2022-11-16T19:36:38.024Z,4.27
2022-11-16T19:46:39.767Z,4.28
2022-11-16T19:56:42.502Z,4.27
2022-11-16T20:06:50.287Z,4.23
2022-11-16T20:16:54.807Z,4.22
2022-11-16T20:26:56.594Z,4.19
2022-11-16T20:36:58.386Z,4.19
2022-11-16T20:47:00.152Z,4.23
2022-11-16T20:57:01.868Z,4.25
2022-11-16T21:07:03.813Z,4.24
2022-11-16T21:17:05.744Z,4.25
2022-11-16T21:27:07.413Z,4.27
2022-11-16T21:37:09.254Z,4.31
2022-11-16T21:47:11.492Z,4.33
2022-11-16T21:57:16.856Z,4.29
2022-11-16T22:07:36.138Z,4.31
2022-11-16T22:17:44.067Z,4.30
2022-11-16T22:28:18.684Z,4.29
2022-11-16T22:38:10.805Z,4.28
2022-11-16T22:48:16.039Z,4.31
2022-11-16T22:58:17.852Z,4.30
2022-11-16T23:08:24.207Z,4.28
2022-11-16T23:18:26.107Z,4.26
2022-11-16T23:28:27.937Z,4.24
2022-11-16T23:38:29.639Z,4.23
2022-11-16T23:48:31.420Z,4.19
2022-11-16T23:58:33.214Z,4.15
